Time;durP1;ratioP1;P1;durP2;ratioP2;P2;SDS_P1;SDS_P2;PMS_P1;PMS_P2;Temp;Humidity;BMP_temperature;BMP_pressure;BME280_temperature;BME280_humidity;BME280_pressure;Samples;Min_cycle;Max_cycle;Signal;HPM_P1;HPM_P2
2024/03/23 00:00:25;;;;;;;5.43;3.30;;;13.30;49.90;;;;;;5076066;28;20431;-65
2024/03/23 00:02:56;;;;;;;5.23;3.30;;;13.20;49.90;;;;;;5076332;28;20432;-65
2024/03/23 00:05:26;;;;;;;6.60;4.97;;;13.20;50.50;;;;;;5076057;28;20478;-65
2024/03/23 00:07:58;;;;;;;7.30;4.57;;;13.10;50.80;;;;;;5075760;28;20795;-65
2024/03/23 00:10:29;;;;;;;8.50;5.60;;;13.10;50.90;;;;;;5076733;28;20431;-65
2024/03/23 00:16:24;;;;;;;14.00;9.50;;;13.00;51.60;;;;;;5075938;28;20748;-65
2024/03/23 00:22:16;;;;;;;8.40;5.57;;;12.90;51.50;;;;;;5076269;28;20707;-65
2024/03/23 00:29:04;;;;;;;6.23;3.60;;;12.60;52.20;;;;;;5095480;28;20471;-65
2024/03/23 00:31:34;;;;;;;6.13;4.37;;;12.50;52.60;;;;;;5081598;28;20420;-65
2024/03/23 00:37:26;;;;;;;5.93;3.57;;;12.30;52.80;;;;;;5096371;28;20755;-65
2024/03/23 00:43:30;;;;;;;4.70;2.90;;;12.00;53.90;;;;;;5096094;28;20256;-65
2024/03/23 00:46:01;;;;;;;5.23;2.83;;;11.80;54.30;;;;;;5095672;28;20921;-64
2024/03/23 00:48:33;;;;;;;4.20;2.95;;;11.80;54.10;;;;;;5076165;28;20466;-65
2024/03/23 00:51:02;;;;;;;5.67;2.80;;;11.70;54.30;;;;;;5076275;28;20217;-65
2024/03/23 00:53:33;;;;;;;5.47;3.27;;;11.70;54.60;;;;;;5075560;28;20420;-64
2024/03/23 00:59:27;;;;;;;5.30;2.88;;;11.60;54.60;;;;;;5074640;28;20488;-65
2024/03/23 01:05:15;;;;;;;3.25;2.65;;;11.60;54.60;;;;;;5075266;28;20203;-65
2024/03/23 01:07:41;;;;;;;4.45;2.85;;;11.50;55.00;;;;;;5088164;28;20181;-65
2024/03/23 01:10:39;;;;;;;4.83;2.80;;;11.50;55.20;;;;;;5095446;28;20197;-65
2024/03/23 01:13:05;;;;;;;4.32;2.85;;;11.40;55.90;;;;;;5095703;28;20769;-65
2024/03/23 01:15:33;;;;;;;5.70;2.95;;;11.50;55.90;;;;;;5094976;28;20181;-65
2024/03/23 01:21:22;;;;;;;5.03;2.85;;;11.50;55.70;;;;;;5094962;28;20210;-65
2024/03/23 01:30:40;;;;;;;4.50;2.92;;;11.30;56.50;;;;;;5115342;28;20158;-65
2024/03/23 01:33:07;;;;;;;6.10;3.00;;;11.20;57.10;;;;;;5115381;28;20225;-65
2024/03/23 01:36:01;;;;;;;5.88;2.92;;;11.10;57.30;;;;;;5116309;28;20177;-65
2024/03/23 01:41:51;;;;;;;4.28;2.97;;;11.10;57.60;;;;;;5114921;28;20156;-65
2024/03/23 01:47:41;;;;;;;5.15;2.70;;;11.20;57.60;;;;;;5114564;28;20626;-65
2024/03/23 01:50:08;;;;;;;3.55;2.85;;;11.20;57.70;;;;;;5114542;28;20214;-65
2024/03/23 01:52:35;;;;;;;8.25;3.03;;;11.20;57.90;;;;;;5114545;28;20623;-65
2024/03/23 01:55:01;;;;;;;5.60;2.67;;;11.10;57.90;;;;;;5114646;28;20226;-65
2024/03/23 01:57:28;;;;;;;3.63;2.50;;;11.10;58.40;;;;;;5114784;28;20193;-65
2024/03/23 01:59:54;;;;;;;8.13;2.95;;;11.00;58.30;;;;;;5114912;28;20237;-65
2024/03/23 02:06:10;;;;;;;4.22;3.05;;;11.00;58.40;;;;;;5114340;28;20568;-65
2024/03/23 02:08:36;;;;;;;3.45;2.67;;;10.90;58.80;;;;;;5113793;28;20229;-65
2024/03/23 02:11:03;;;;;;;4.72;2.70;;;10.90;59.10;;;;;;5114078;28;20184;-65
2024/03/23 02:14:07;;;;;;;5.50;2.55;;;10.80;59.20;;;;;;5114846;28;20539;-65
2024/03/23 02:16:36;;;;;;;4.15;1.80;;;10.80;59.40;;;;;;5115692;28;20188;-65
2024/03/23 02:19:03;;;;;;;4.13;2.83;;;10.80;59.20;;;;;;5111923;28;20261;-65
2024/03/23 02:24:53;;;;;;;4.50;2.33;;;10.80;58.70;;;;;;5114341;28;20155;-65
2024/03/23 02:31:01;;;;;;;5.82;2.95;;;10.90;58.30;;;;;;5113113;28;20257;-65
2024/03/23 02:34:05;;;;;;;3.75;2.80;;;10.90;57.80;;;;;;5115112;28;20591;-65
2024/03/23 02:39:55;;;;;;;3.70;1.90;;;11.00;57.00;;;;;;5113820;28;20230;-65
2024/03/23 02:42:22;;;;;;;4.82;2.65;;;11.00;57.20;;;;;;5114069;28;20212;-66
2024/03/23 02:44:49;;;;;;;4.93;2.58;;;11.00;56.80;;;;;;5114264;28;20180;-65
2024/03/23 02:47:15;;;;;;;5.30;2.67;;;10.90;56.80;;;;;;5114066;28;20212;-65
2024/03/23 02:49:42;;;;;;;3.83;2.40;;;10.90;56.90;;;;;;5114223;28;20284;-65
2024/03/23 02:52:08;;;;;;;3.47;2.05;;;10.90;56.80;;;;;;5113909;28;20188;-65
2024/03/23 02:54:35;;;;;;;6.85;1.95;;;10.90;57.00;;;;;;5112480;28;20267;-65
2024/03/23 02:57:03;;;;;;;3.75;2.30;;;10.90;56.90;;;;;;5113807;28;20188;-65
2024/03/23 02:59:30;;;;;;;4.10;2.22;;;10.90;56.50;;;;;;5113796;28;20188;-65
2024/03/23 03:01:56;;;;;;;3.55;1.88;;;10.90;56.60;;;;;;5113961;28;20385;-65
2024/03/23 03:04:23;;;;;;;3.17;2.20;;;10.80;56.50;;;;;;5114102;28;20268;-65
2024/03/23 03:06:49;;;;;;;3.45;2.20;;;10.80;56.50;;;;;;5112774;28;20462;-65
2024/03/23 03:09:16;;;;;;;3.35;1.90;;;10.80;56.50;;;;;;5113388;28;20208;-65
2024/03/23 03:11:42;;;;;;;4.13;2.55;;;10.80;56.80;;;;;;5113302;28;20673;-66
2024/03/23 03:14:10;;;;;;;4.03;2.15;;;10.80;57.00;;;;;;5113862;28;20543;-65
2024/03/23 03:16:36;;;;;;;4.25;2.20;;;10.80;56.50;;;;;;5113379;28;20184;-65
2024/03/23 03:19:03;;;;;;;6.25;2.45;;;10.70;56.40;;;;;;5113717;28;20233;-65
2024/03/23 03:21:29;;;;;;;4.75;2.60;;;10.70;56.40;;;;;;5113712;28;20211;-65
2024/03/23 03:23:57;;;;;;;6.00;2.00;;;10.70;56.40;;;;;;5115867;28;20577;-65
2024/03/23 03:26:23;;;;;;;6.20;2.80;;;10.60;56.30;;;;;;5117770;28;20434;-65
2024/03/23 03:28:51;;;;;;;3.05;2.10;;;10.60;56.30;;;;;;5117354;28;20215;-65
2024/03/23 03:31:18;;;;;;;3.38;2.00;;;10.60;56.40;;;;;;5117253;28;20227;-65
2024/03/23 03:33:46;;;;;;;3.65;1.90;;;10.50;56.40;;;;;;5117593;28;20211;-65
2024/03/23 03:36:12;;;;;;;3.10;2.00;;;10.50;56.50;;;;;;5117647;28;20294;-65
2024/03/23 03:38:39;;;;;;;3.50;2.08;;;10.40;56.50;;;;;;5117417;28;20700;-65
2024/03/23 03:41:06;;;;;;;4.57;2.55;;;10.40;56.60;;;;;;5117483;28;20266;-65
2024/03/23 03:43:33;;;;;;;3.67;2.35;;;10.30;56.70;;;;;;5117126;28;20275;-65
2024/03/23 03:46:00;;;;;;;4.40;2.53;;;10.30;56.90;;;;;;5117417;28;20238;-65
2024/03/23 03:48:29;;;;;;;5.97;2.30;;;10.30;57.30;;;;;;5116929;28;20696;-65
2024/03/23 03:50:55;;;;;;;3.50;2.17;;;10.30;57.00;;;;;;5116997;28;20192;-65
2024/03/23 03:53:22;;;;;;;4.78;2.30;;;10.20;56.80;;;;;;5116928;28;20184;-65
2024/03/23 03:55:48;;;;;;;4.63;2.20;;;10.20;56.50;;;;;;5116957;28;20634;-65
2024/03/23 03:58:15;;;;;;;4.23;2.60;;;10.20;56.10;;;;;;5117285;28;20206;-65
2024/03/23 04:00:41;;;;;;;4.63;2.58;;;10.20;56.10;;;;;;5116757;28;20465;-65
2024/03/23 04:03:08;;;;;;;3.33;1.83;;;10.10;55.60;;;;;;5116994;28;20187;-65
2024/03/23 04:05:36;;;;;;;3.53;1.73;;;10.10;55.40;;;;;;5117152;28;20185;-65
2024/03/23 04:08:03;;;;;;;4.97;2.38;;;10.00;55.30;;;;;;5116962;28;20188;-65
2024/03/23 04:10:29;;;;;;;3.92;2.10;;;10.00;55.20;;;;;;5117130;28;20328;-65
2024/03/23 04:12:56;;;;;;;4.07;1.77;;;10.00;55.50;;;;;;5116880;28;20188;-65
2024/03/23 04:15:22;;;;;;;4.82;2.40;;;10.00;56.20;;;;;;5116810;28;20184;-65
2024/03/23 04:17:49;;;;;;;4.65;2.15;;;10.00;56.40;;;;;;5116542;28;20191;-65
2024/03/23 04:20:16;;;;;;;4.10;2.28;;;10.00;56.10;;;;;;5116440;28;20630;-65
2024/03/23 04:22:45;;;;;;;4.35;2.03;;;9.90;57.10;;;;;;5116632;28;20188;-65
2024/03/23 04:25:11;;;;;;;3.78;2.00;;;9.90;57.00;;;;;;5116680;28;20223;-65
2024/03/23 04:27:38;;;;;;;3.33;1.92;;;9.80;56.90;;;;;;5116568;28;20610;-65
2024/03/23 04:30:10;;;;;;;4.25;1.77;;;9.80;56.80;;;;;;5116161;28;20224;-65
2024/03/23 04:32:37;;;;;;;4.15;2.22;;;9.80;56.60;;;;;;5116548;28;20180;-65
2024/03/23 04:35:05;;;;;;;6.43;2.10;;;9.70;56.40;;;;;;5115485;28;20211;-65
2024/03/23 04:37:33;;;;;;;3.60;1.90;;;9.70;56.50;;;;;;5116369;28;20190;-65
2024/03/23 04:40:03;;;;;;;3.22;1.63;;;9.70;56.60;;;;;;5116330;28;20271;-65
2024/03/23 04:42:30;;;;;;;3.05;1.75;;;9.60;56.10;;;;;;5116328;28;20207;-65
2024/03/23 04:44:57;;;;;;;2.70;1.40;;;9.60;55.90;;;;;;5116327;28;20184;-65
2024/03/23 04:47:24;;;;;;;4.68;2.00;;;9.60;56.00;;;;;;5115237;28;20184;-65
2024/03/23 04:50:47;;;;;;;7.07;2.30;;;9.60;56.20;;;;;;5116879;28;20232;-65
2024/03/23 04:56:37;;;;;;;4.72;2.08;;;9.60;55.90;;;;;;5115131;28;20672;-65
2024/03/23 04:59:50;;;;;;;6.60;2.70;;;9.50;55.70;;;;;;5116162;28;20610;-65
2024/03/23 05:02:17;;;;;;;6.38;2.97;;;9.50;55.90;;;;;;5115524;28;20172;-65
2024/03/23 05:04:43;;;;;;;4.75;2.80;;;9.50;55.50;;;;;;5116755;28;20214;-65
2024/03/23 05:07:11;;;;;;;4.75;2.60;;;9.50;55.50;;;;;;5116526;28;20580;-65
2024/03/23 05:09:37;;;;;;;5.43;2.70;;;9.50;55.40;;;;;;5115886;28;20208;-65
2024/03/23 05:12:06;;;;;;;3.65;1.83;;;9.50;55.40;;;;;;5116093;28;20215;-65
2024/03/23 05:14:32;;;;;;;3.67;2.05;;;9.50;55.40;;;;;;5115135;28;20239;-65
2024/03/23 05:16:59;;;;;;;3.63;1.75;;;9.50;55.00;;;;;;5115259;28;20173;-65
2024/03/23 05:19:25;;;;;;;2.55;1.25;;;9.60;55.00;;;;;;5115337;28;20176;-65
2024/03/23 05:21:53;;;;;;;3.25;1.35;;;9.60;54.20;;;;;;5115875;28;20245;-65
2024/03/23 05:25:12;;;;;;;4.30;1.48;;;9.60;53.90;;;;;;5115207;28;20267;-64
2024/03/23 05:27:40;;;;;;;2.95;1.50;;;9.70;53.90;;;;;;5114625;28;20211;-65
2024/03/23 05:33:29;;;;;;;2.85;1.40;;;9.70;53.40;;;;;;5114554;28;20633;-65
2024/03/23 05:39:18;;;;;;;2.65;1.35;;;9.70;53.60;;;;;;5115022;28;20195;-65
2024/03/23 05:45:09;;;;;;;2.72;1.20;;;9.70;54.40;;;;;;5114445;28;20199;-65
2024/03/23 05:50:58;;;;;;;2.40;1.42;;;9.90;54.40;;;;;;5114962;28;20187;-64
2024/03/23 05:56:47;;;;;;;4.90;1.90;;;10.00;54.10;;;;;;5114153;28;20491;-65
2024/03/23 05:59:13;;;;;;;4.05;2.40;;;10.00;53.70;;;;;;5114483;28;20208;-65
2024/03/23 06:01:41;;;;;;;4.22;2.35;;;10.10;54.00;;;;;;5114541;28;20188;-65
2024/03/23 06:04:07;;;;;;;4.05;2.15;;;10.10;54.20;;;;;;5115485;28;20176;-65
2024/03/23 06:06:34;;;;;;;3.53;2.10;;;10.10;54.30;;;;;;5114128;28;20192;-65
2024/03/23 06:12:23;;;;;;;3.03;1.60;;;10.20;54.80;;;;;;5114071;28;20237;-65
2024/03/23 06:14:49;;;;;;;4.43;2.25;;;10.30;55.00;;;;;;5113948;28;20237;-65
2024/03/23 06:17:18;;;;;;;3.40;1.90;;;10.40;55.20;;;;;;5114714;28;20173;-64
2024/03/23 06:20:22;;;;;;;4.22;2.75;;;10.50;55.10;;;;;;5115138;28;20180;-65
2024/03/23 06:22:48;;;;;;;4.68;2.90;;;10.60;55.80;;;;;;5114672;28;20188;-66
2024/03/23 06:25:15;;;;;;;4.85;2.78;;;10.70;55.30;;;;;;5114259;28;20188;-65
2024/03/23 06:27:41;;;;;;;4.70;2.78;;;10.80;54.10;;;;;;5114491;28;20173;-65
2024/03/23 06:30:09;;;;;;;3.80;2.30;;;10.90;54.10;;;;;;5113580;28;20230;-65
2024/03/23 06:32:36;;;;;;;5.32;2.38;;;11.00;54.30;;;;;;5114252;28;20240;-65
2024/03/23 06:35:08;;;;;;;7.25;2.20;;;11.20;53.30;;;;;;5113808;28;20184;-65
2024/03/23 06:40:57;;;;;;;5.90;3.20;;;11.50;54.20;;;;;;5113973;28;20512;-66
2024/03/23 06:43:23;;;;;;;5.03;2.70;;;11.70;53.40;;;;;;5113447;28;20180;-65
2024/03/23 06:49:14;;;;;;;2.97;1.30;;;12.00;53.70;;;;;;5113341;28;20264;-65
2024/03/23 06:51:44;;;;;;;3.23;1.60;;;12.20;53.40;;;;;;5113270;28;20630;-65
2024/03/23 06:54:12;;;;;;;4.10;1.87;;;12.40;53.70;;;;;;5113229;28;20909;-65
2024/03/23 06:56:38;;;;;;;2.93;1.30;;;12.70;51.80;;;;;;5108901;28;20438;-65
2024/03/23 06:59:05;;;;;;;3.60;1.40;;;12.90;51.90;;;;;;5108539;28;20483;-65
2024/03/23 07:02:11;;;;;;;2.47;1.40;;;13.20;51.80;;;;;;5109916;28;20418;-65
2024/03/23 07:04:40;;;;;;;3.20;1.40;;;13.50;51.50;;;;;;5108672;28;20421;-65
2024/03/23 07:07:06;;;;;;;2.57;1.40;;;13.80;51.10;;;;;;5108656;28;20509;-65
2024/03/23 07:09:49;;;;;;;2.20;1.00;;;14.20;49.90;;;;;;5109067;28;20454;-65
2024/03/23 07:12:15;;;;;;;2.30;1.20;;;14.70;48.20;;;;;;5113380;28;20422;-66
2024/03/23 07:14:42;;;;;;;3.43;1.40;;;14.90;47.70;;;;;;5111390;28;20933;-65
2024/03/23 07:17:08;;;;;;;2.50;1.20;;;15.00;47.20;;;;;;5108691;28;20415;-67
2024/03/23 07:19:35;;;;;;;2.70;1.17;;;15.00;46.00;;;;;;5108710;28;20469;-66
2024/03/23 07:22:04;;;;;;;4.10;1.70;;;14.90;44.50;;;;;;5109370;28;20422;-66
2024/03/23 07:24:33;;;;;;;2.90;1.50;;;14.90;45.50;;;;;;5100043;28;20608;-65
2024/03/23 07:26:59;;;;;;;3.37;1.50;;;14.80;46.50;;;;;;5112696;28;20419;-67
2024/03/23 07:29:26;;;;;;;3.73;1.63;;;14.80;46.60;;;;;;5113513;28;20458;-66
2024/03/23 07:31:52;;;;;;;3.30;1.20;;;14.70;46.10;;;;;;5114007;28;20499;-65
2024/03/23 07:34:19;;;;;;;4.13;1.80;;;14.70;46.70;;;;;;5113287;28;20418;-65
2024/03/23 07:37:15;;;;;;;3.60;1.80;;;14.70;46.40;;;;;;5111706;28;20502;-65
2024/03/23 07:39:42;;;;;;;3.30;1.60;;;14.80;46.90;;;;;;5083001;28;20927;-65
2024/03/23 07:44:50;;;;;;;4.60;2.30;;;15.20;47.70;;;;;;5109154;28;21005;-65
2024/03/23 07:47:27;;;;;;;3.30;2.17;;;15.30;46.30;;;;;;5111498;28;20440;-66
2024/03/23 07:49:54;;;;;;;4.60;2.03;;;15.30;46.90;;;;;;5101644;28;21087;-66
2024/03/23 07:55:55;;;;;;;5.30;2.17;;;15.40;48.10;;;;;;5113746;28;20373;-66
2024/03/23 07:58:21;;;;;;;3.70;2.03;;;15.40;48.50;;;;;;5112569;28;20969;-66
2024/03/23 08:00:54;;;;;;;4.17;2.20;;;15.40;48.80;;;;;;5112553;28;20442;-66
2024/03/23 08:03:20;;;;;;;3.50;2.57;;;15.40;49.50;;;;;;5109193;28;20434;-66
2024/03/23 08:05:47;;;;;;;3.13;2.17;;;15.30;50.00;;;;;;5112715;28;20426;-66
2024/03/23 08:08:14;;;;;;;3.17;2.17;;;15.20;50.60;;;;;;5112743;28;20810;-66
2024/03/23 08:13:52;;;;;;;3.70;1.53;;;15.20;51.80;;;;;;5116003;28;20433;-66
2024/03/23 08:16:19;;;;;;;3.90;2.13;;;15.20;51.40;;;;;;5116228;28;20445;-67
2024/03/23 08:18:46;;;;;;;2.70;1.23;;;15.10;51.50;;;;;;5116700;28;20434;-66
2024/03/23 08:21:12;;;;;;;2.90;1.63;;;15.00;52.30;;;;;;5116300;28;20430;-67
2024/03/23 08:23:39;;;;;;;2.93;1.23;;;14.90;52.70;;;;;;5117080;28;20464;-66
2024/03/23 08:36:01;;;;;;;2.03;0.97;;;14.30;52.00;;;;;;5116481;28;20378;-66
2024/03/23 08:41:52;;;;;;;2.70;1.37;;;14.00;52.40;;;;;;5115754;28;20430;-66
2024/03/23 08:44:18;;;;;;;2.73;1.40;;;13.80;52.80;;;;;;5115597;28;20528;-66
2024/03/23 08:46:45;;;;;;;2.43;1.37;;;13.80;53.50;;;;;;5115486;28;20512;-66
2024/03/23 08:49:24;;;;;;;2.97;1.70;;;13.70;54.70;;;;;;5113717;28;20422;-66
2024/03/23 08:51:54;;;;;;;2.37;1.20;;;13.60;54.60;;;;;;5106090;28;20418;-66
2024/03/23 08:54:22;;;;;;;3.63;1.60;;;13.50;55.40;;;;;;5112120;28;20822;-66
2024/03/23 08:56:52;;;;;;;4.00;1.30;;;13.40;56.10;;;;;;5101179;28;20888;-67
2024/03/23 08:59:20;;;;;;;2.77;1.70;;;13.30;56.50;;;;;;5111874;28;20419;-66
2024/03/23 09:01:47;;;;;;;4.83;2.37;;;13.30;57.20;;;;;;5111868;28;20854;-66
2024/03/23 09:04:14;;;;;;;2.53;1.47;;;13.30;57.50;;;;;;5112037;28;20974;-66
2024/03/23 09:06:43;;;;;;;2.97;1.70;;;13.20;58.00;;;;;;5113636;28;20426;-66
2024/03/23 09:09:11;;;;;;;3.50;1.70;;;13.20;58.00;;;;;;5112264;28;20413;-66
2024/03/23 09:15:04;;;;;;;3.00;1.90;;;13.10;58.30;;;;;;5115079;28;20412;-66
2024/03/23 09:17:31;;;;;;;3.27;2.10;;;13.00;59.10;;;;;;5115658;28;20513;-66
2024/03/23 09:23:20;;;;;;;2.50;1.53;;;12.90;59.50;;;;;;5115449;28;20363;-66
2024/03/23 09:26:31;;;;;;;2.93;1.70;;;12.90;59.70;;;;;;5115255;28;20453;-67
2024/03/23 09:28:59;;;;;;;2.83;1.73;;;12.80;59.70;;;;;;5074632;28;20741;-66
2024/03/23 09:38:36;;;;;;;2.30;1.30;;;12.70;59.10;;;;;;5094784;28;20383;-65
2024/03/23 09:42:00;;;;;;;2.95;1.60;;;12.70;60.10;;;;;;5094635;28;20424;-64
2024/03/23 09:44:29;;;;;;;3.03;1.77;;;12.70;61.80;;;;;;5094698;28;20230;-65
2024/03/23 09:46:55;;;;;;;3.47;1.30;;;12.70;61.80;;;;;;5094744;28;20421;-65
2024/03/23 09:49:40;;;;;;;3.00;1.33;;;12.70;62.20;;;;;;5093764;28;20769;-65
2024/03/23 09:52:07;;;;;;;2.60;1.20;;;12.70;62.80;;;;;;5094029;28;20431;-66
2024/03/23 09:57:56;;;;;;;4.23;1.37;;;12.70;62.90;;;;;;5094136;28;20486;-65
2024/03/23 10:04:01;;;;;;;2.13;0.90;;;12.60;60.10;;;;;;5094084;28;20525;-65
2024/03/23 10:09:50;;;;;;;2.20;0.90;;;12.10;59.10;;;;;;5093607;28;20208;-65
2024/03/23 10:12:20;;;;;;;3.45;0.98;;;11.80;59.20;;;;;;5094275;28;20268;-65
2024/03/23 10:24:46;;;;;;;1.83;0.70;;;11.30;59.60;;;;;;5093832;28;20192;-65
2024/03/23 10:27:16;;;;;;;2.25;1.10;;;11.20;59.80;;;;;;5093232;28;20265;-65
2024/03/23 10:29:44;;;;;;;2.25;0.85;;;11.10;60.50;;;;;;5093177;28;20264;-65
2024/03/23 10:32:13;;;;;;;2.25;0.80;;;11.10;61.10;;;;;;5102564;28;20267;-65
2024/03/23 10:34:41;;;;;;;3.10;1.10;;;11.00;62.50;;;;;;5114434;28;20199;-65
2024/03/23 10:37:12;;;;;;;2.30;1.00;;;10.90;63.30;;;;;;5115407;28;20543;-65
2024/03/23 10:43:05;;;;;;;2.05;0.80;;;11.00;65.50;;;;;;5097123;28;20152;-65
2024/03/23 10:49:03;;;;;;;2.30;1.15;;;11.00;63.00;;;;;;5094225;28;20194;-65
2024/03/23 10:55:04;;;;;;;2.00;0.80;;;11.00;63.30;;;;;;5091853;28;20218;-65
2024/03/23 10:57:37;;;;;;;1.90;0.70;;;11.00;64.30;;;;;;5103532;28;20271;-65
2024/03/23 11:06:49;;;;;;;2.58;1.00;;;11.20;63.30;;;;;;5113705;28;20172;-65
2024/03/23 11:12:38;;;;;;;2.38;1.20;;;11.10;60.00;;;;;;5109750;28;20589;-65
2024/03/23 11:15:16;;;;;;;2.90;1.27;;;10.90;60.70;;;;;;5114371;28;20208;-64
2024/03/23 11:21:52;;;;;;;2.97;1.00;;;10.70;59.60;;;;;;5113236;28;20195;-65
2024/03/23 11:27:41;;;;;;;3.22;1.05;;;10.50;61.50;;;;;;5105778;28;20183;-64
2024/03/23 11:37:07;;;;;;;2.30;0.90;;;10.20;60.60;;;;;;5112719;28;20595;-65
2024/03/23 11:43:00;;;;;;;2.08;0.90;;;10.10;60.70;;;;;;5113410;28;20156;-65
2024/03/23 11:48:52;;;;;;;3.28;1.02;;;10.00;59.70;;;;;;5117075;28;20183;-64
2024/03/23 11:51:56;;;;;;;2.00;0.80;;;9.90;61.60;;;;;;5117839;28;20633;-65
2024/03/23 11:57:46;;;;;;;4.75;2.30;;;9.90;62.70;;;;;;5117129;28;20152;-65
2024/03/23 12:00:32;;;;;;;4.00;1.73;;;9.90;63.30;;;;;;5117972;28;20204;-65
2024/03/23 12:03:01;;;;;;;2.88;1.27;;;10.00;62.40;;;;;;5076413;28;20177;-65
2024/03/23 12:05:27;;;;;;;2.63;1.10;;;10.00;62.50;;;;;;5077369;28;20630;-65
2024/03/23 12:11:17;;;;;;;4.00;2.03;;;10.10;62.50;;;;;;5076100;28;20247;-66
2024/03/23 12:17:12;;;;;;;5.43;2.30;;;10.30;63.90;;;;;;5105670;28;20209;-65
2024/03/23 12:19:39;;;;;;;2.65;1.33;;;10.30;65.00;;;;;;5117185;28;20210;-66
2024/03/23 12:22:06;;;;;;;2.60;1.35;;;10.40;63.50;;;;;;5116594;28;20263;-66
2024/03/23 12:24:35;;;;;;;4.60;2.40;;;10.60;61.70;;;;;;5117809;28;20184;-66
2024/03/23 12:30:30;;;;;;;3.38;1.30;;;10.60;59.60;;;;;;5115794;28;20223;-66
2024/03/23 12:36:28;;;;;;;5.15;1.20;;;10.60;59.80;;;;;;5110562;28;20312;-66
2024/03/23 12:38:54;;;;;;;3.88;1.00;;;10.70;58.20;;;;;;5116681;28;20202;-66
2024/03/23 12:41:23;;;;;;;3.20;1.27;;;10.80;58.80;;;;;;5116268;28;20570;-66
2024/03/23 12:43:59;;;;;;;3.88;1.95;;;10.80;58.30;;;;;;5116123;28;20482;-65
2024/03/23 12:46:26;;;;;;;2.10;0.90;;;10.80;57.80;;;;;;5105332;28;20180;-66
2024/03/23 12:48:53;;;;;;;7.93;2.60;;;10.80;57.10;;;;;;5115160;28;20272;-66
2024/03/23 12:51:54;;;;;;;5.25;3.10;;;10.80;57.10;;;;;;5116259;28;20589;-66
2024/03/23 12:54:21;;;;;;;2.92;1.35;;;10.80;57.10;;;;;;5076342;28;20177;-65
2024/03/23 13:01:07;;;;;;;2.30;1.00;;;10.80;56.70;;;;;;5116729;28;20174;-65
2024/03/23 13:03:34;;;;;;;2.60;1.20;;;10.70;57.10;;;;;;5116679;28;20241;-65
2024/03/23 13:12:46;;;;;;;2.85;1.30;;;10.70;56.60;;;;;;5115783;28;20180;-66
2024/03/23 13:15:12;;;;;;;2.97;1.50;;;10.70;57.10;;;;;;5115568;28;20568;-66
2024/03/23 13:17:39;;;;;;;3.13;1.17;;;10.60;57.20;;;;;;5115842;28;20226;-66
2024/03/23 13:21:01;;;;;;;5.38;1.35;;;10.60;55.90;;;;;;5115854;28;20427;-66
2024/03/23 13:23:28;;;;;;;3.13;1.55;;;10.60;55.50;;;;;;5115503;28;20185;-64
2024/03/23 13:25:55;;;;;;;3.53;1.30;;;10.60;55.90;;;;;;5116090;28;20552;-65
2024/03/23 13:28:24;;;;;;;3.30;1.63;;;10.50;57.00;;;;;;5116124;28;20172;-67
2024/03/23 13:31:19;;;;;;;2.97;1.40;;;10.50;56.60;;;;;;5116059;28;20276;-65
2024/03/23 13:33:46;;;;;;;5.68;1.75;;;10.50;57.50;;;;;;5116650;28;20173;-64
2024/03/23 13:36:38;;;;;;;4.38;1.42;;;10.60;57.80;;;;;;5117720;28;20240;-65
2024/03/23 13:39:10;;;;;;;4.22;1.55;;;10.50;58.40;;;;;;5113195;28;20245;-66
2024/03/23 13:41:38;;;;;;;4.82;3.05;;;10.50;59.90;;;;;;5118244;28;20986;-66
2024/03/23 13:44:06;;;;;;;5.25;3.10;;;10.60;58.90;;;;;;5114549;28;20279;-67
2024/03/23 13:46:33;;;;;;;4.00;1.60;;;10.60;58.70;;;;;;5115034;28;20193;-66
2024/03/23 13:49:37;;;;;;;4.95;2.05;;;10.50;58.80;;;;;;5115533;28;20553;-66
2024/03/23 13:55:26;;;;;;;3.70;2.15;;;10.50;56.30;;;;;;5114709;28;20156;-65
2024/03/23 14:01:21;;;;;;;4.95;2.10;;;10.50;56.60;;;;;;5114897;28;20194;-65
2024/03/23 14:07:11;;;;;;;4.55;1.92;;;10.50;55.90;;;;;;5117965;28;20205;-65
2024/03/23 14:10:23;;;;;;;5.30;2.22;;;10.50;56.50;;;;;;5114862;28;20215;-65
2024/03/23 14:12:50;;;;;;;4.07;1.75;;;10.60;56.60;;;;;;5068575;28;20199;-66
2024/03/23 14:15:18;;;;;;;7.50;1.80;;;10.60;55.80;;;;;;5097292;28;20185;-65
2024/03/23 14:17:46;;;;;;;3.58;1.30;;;10.70;54.70;;;;;;5092874;28;20225;-65
2024/03/23 14:20:15;;;;;;;2.95;1.50;;;10.70;53.60;;;;;;5101780;28;20174;-65
2024/03/23 14:22:43;;;;;;;6.68;2.00;;;10.70;53.90;;;;;;5104737;28;20215;-66
2024/03/23 14:25:10;;;;;;;5.53;1.90;;;10.70;52.70;;;;;;5111808;28;20709;-66
2024/03/23 14:27:45;;;;;;;5.57;1.83;;;10.70;50.70;;;;;;5108871;28;20230;-65
2024/03/23 14:30:13;;;;;;;4.38;1.40;;;10.80;51.20;;;;;;5111475;28;20184;-66
2024/03/23 14:39:34;;;;;;;3.60;1.63;;;10.60;54.50;;;;;;5092688;28;20577;-66
2024/03/23 14:42:01;;;;;;;5.35;1.48;;;10.20;54.60;;;;;;5091628;28;20272;-67
2024/03/23 14:44:28;;;;;;;4.15;1.80;;;9.90;56.20;;;;;;5091025;28;20184;-66
2024/03/23 14:46:55;;;;;;;3.17;1.50;;;9.60;56.90;;;;;;5092735;28;20183;-66
2024/03/23 14:49:22;;;;;;;2.33;1.20;;;9.40;57.20;;;;;;5092557;28;20271;-66
2024/03/23 14:51:48;;;;;;;2.63;1.70;;;9.20;57.90;;;;;;5092409;28;20628;-66
2024/03/23 14:54:16;;;;;;;4.17;2.23;;;9.00;58.50;;;;;;5093070;28;20282;-66
2024/03/23 14:56:43;;;;;;;2.80;1.60;;;9.00;58.90;;;;;;5092612;28;20797;-66
2024/03/23 14:59:10;;;;;;;3.00;1.40;;;8.90;60.00;;;;;;5092623;28;20651;-66
2024/03/23 15:01:36;;;;;;;6.45;2.50;;;8.90;60.30;;;;;;5092147;28;20267;-66
2024/03/23 15:04:03;;;;;;;4.30;2.20;;;8.90;60.70;;;;;;5092351;28;20375;-66
2024/03/23 15:06:29;;;;;;;3.22;1.48;;;8.90;62.00;;;;;;5093124;28;20423;-66
2024/03/23 15:09:44;;;;;;;3.92;1.60;;;9.00;62.80;;;;;;5090348;28;20188;-66
2024/03/23 15:12:11;;;;;;;3.35;2.00;;;9.00;63.30;;;;;;5085758;28;20688;-66
2024/03/23 15:14:57;;;;;;;5.88;1.20;;;9.10;62.30;;;;;;5093690;28;20298;-66
2024/03/23 15:24:10;;;;;;;3.10;1.90;;;9.20;63.90;;;;;;5097116;28;20180;-65
2024/03/23 15:26:43;;;;;;;3.65;2.25;;;9.30;62.60;;;;;;5090295;28;20230;-67
2024/03/23 15:29:16;;;;;;;6.25;1.83;;;9.30;61.60;;;;;;5100409;28;20185;-65
2024/03/23 15:34:38;;;;;;;4.82;2.25;;;9.30;63.80;;;;;;5100235;28;20262;-65
2024/03/23 15:37:04;;;;;;;4.07;2.40;;;9.40;62.20;;;;;;5101408;28;20295;-65
2024/03/23 15:39:32;;;;;;;4.57;2.40;;;9.50;60.30;;;;;;5100069;28;20193;-65
2024/03/23 15:41:58;;;;;;;4.10;2.70;;;9.50;61.50;;;;;;5104653;28;20184;-65
2024/03/23 15:47:53;;;;;;;2.75;1.60;;;9.40;61.60;;;;;;5117293;28;20512;-65
2024/03/23 15:50:51;;;;;;;3.40;1.63;;;9.50;60.30;;;;;;5117665;28;20180;-65
2024/03/23 15:53:19;;;;;;;6.30;1.95;;;9.50;60.90;;;;;;5106392;28;20173;-65
2024/03/23 15:55:46;;;;;;;2.60;1.60;;;9.50;61.50;;;;;;5112970;28;20192;-65
2024/03/23 15:58:13;;;;;;;5.00;2.20;;;9.50;60.80;;;;;;5113034;28;20189;-66
2024/03/23 16:00:41;;;;;;;7.57;4.43;;;9.50;61.20;;;;;;5096204;28;20193;-66
2024/03/23 16:03:10;;;;;;;4.28;2.20;;;9.60;61.20;;;;;;5094283;28;20220;-65
2024/03/23 16:05:36;;;;;;;6.97;4.35;;;9.60;61.80;;;;;;5095645;28;20272;-65
2024/03/23 16:08:10;;;;;;;6.95;2.13;;;9.50;59.10;;;;;;5095571;28;20181;-66
2024/03/23 16:10:37;;;;;;;3.50;1.90;;;9.40;59.90;;;;;;5097984;28;20231;-66
2024/03/23 16:13:04;;;;;;;4.63;2.25;;;9.40;60.00;;;;;;5107490;28;20193;-66
2024/03/23 16:15:31;;;;;;;4.72;3.05;;;9.40;59.90;;;;;;5095681;28;20217;-67
2024/03/23 16:17:58;;;;;;;3.85;2.03;;;9.40;60.70;;;;;;5095368;28;20640;-66
2024/03/23 16:20:25;;;;;;;5.63;2.60;;;9.40;60.70;;;;;;5085221;28;20254;-66
2024/03/23 16:22:53;;;;;;;5.53;3.50;;;9.50;60.80;;;;;;5094030;28;20630;-66
2024/03/23 16:25:19;;;;;;;5.00;2.90;;;9.40;60.30;;;;;;5094461;28;20188;-66
2024/03/23 16:27:47;;;;;;;3.72;2.63;;;9.30;61.00;;;;;;5094745;28;20196;-67
2024/03/23 16:30:14;;;;;;;5.35;2.30;;;9.30;61.10;;;;;;5093736;28;20255;-66
2024/03/23 16:32:42;;;;;;;6.18;3.13;;;9.20;60.90;;;;;;5094438;28;20212;-66
2024/03/23 16:38:35;;;;;;;6.75;3.70;;;9.00;62.20;;;;;;5094039;28;20208;-65
2024/03/23 16:41:03;;;;;;;8.95;5.00;;;9.00;63.10;;;;;;5096411;28;20231;-66
2024/03/23 16:43:34;;;;;;;6.15;2.67;;;9.00;62.90;;;;;;5107879;28;20185;-66
2024/03/23 16:46:03;;;;;;;7.78;4.57;;;8.90;63.10;;;;;;5114478;28;20177;-66
2024/03/23 16:48:32;;;;;;;5.45;3.67;;;8.90;63.00;;;;;;5115970;28;20894;-66
2024/03/23 16:54:24;;;;;;;3.60;1.90;;;8.90;63.00;;;;;;5095291;28;20149;-66
2024/03/23 16:56:50;;;;;;;5.20;2.78;;;8.80;63.30;;;;;;5095069;28;20174;-66
2024/03/23 17:02:39;;;;;;;6.25;2.33;;;8.70;64.00;;;;;;5101778;28;20183;-66
2024/03/23 17:05:06;;;;;;;3.92;2.50;;;8.70;63.90;;;;;;5115199;28;20184;-66
2024/03/23 17:07:33;;;;;;;4.32;2.65;;;8.80;64.10;;;;;;5115294;28;20702;-66
2024/03/23 17:13:24;;;;;;;4.07;2.60;;;8.70;65.00;;;;;;5115438;28;20180;-67
2024/03/23 17:15:50;;;;;;;9.48;3.67;;;8.70;66.00;;;;;;5115047;28;20192;-66
2024/03/23 17:21:41;;;;;;;3.95;2.30;;;8.60;65.40;;;;;;5115813;28;20195;-66
2024/03/23 17:24:08;;;;;;;5.20;2.50;;;8.50;65.20;;;;;;5114818;28;20271;-66
2024/03/23 17:30:01;;;;;;;4.25;2.28;;;8.30;65.50;;;;;;5115376;28;20637;-66